Time;durP1;ratioP1;P1;durP2;ratioP2;P2;SDS_P1;SDS_P2;PMS_P1;PMS_P2;Temp;Humidity;BMP_temperature;BMP_pressure;BME280_temperature;BME280_humidity;BME280_pressure;Samples;Min_cycle;Max_cycle;Signal;HPM_P1;HPM_P2
2021/03/06 00:02:03;;;;;;;;;;;;;;;0.16;65.07;100782.31;5115620;28;19928;-64
2021/03/06 00:04:31;;;;;;;;;;;;;;;0.21;65.40;100788.47;5115523;28;19924;-63
2021/03/06 00:06:59;;;;;;;;;;;;;;;0.30;65.15;100791.50;5115444;28;19930;-63
2021/03/06 00:09:27;;;;;;;;;;;;;;;0.34;65.37;100795.91;5115418;28;20421;-63
2021/03/06 00:11:54;;;;;;;;;;;;;;;0.43;65.03;100798.97;5115376;28;19923;-63
2021/03/06 00:14:22;;;;;;;;;;;;;;;0.45;65.26;100802.44;5115706;28;19988;-63
2021/03/06 00:16:50;;;;;;;;;;;;;;;0.41;64.91;100805.53;5115233;28;19923;-63
2021/03/06 00:19:18;;;;;;;;;;;;;;;0.44;65.27;100803.22;5115292;28;20332;-63
2021/03/06 00:21:46;;;;;;;;;;;;;;;0.38;65.34;100802.88;5115485;28;19923;-63
2021/03/06 00:24:14;;;;;;;;;;;;;;;0.37;65.62;100809.53;5115197;28;19928;-63
2021/03/06 00:26:41;;;;;;;;;;;;;;;0.28;65.44;100818.19;5115107;28;19923;-63
2021/03/06 00:29:09;;;;;;;;;;;;;;;0.17;65.96;100814.19;5115457;28;19923;-63
2021/03/06 00:31:37;;;;;;;;;;;;;;;0.09;66.24;100820.38;5114929;28;19924;-63
2021/03/06 00:34:06;;;;;;;;;;;;;;;0.02;66.41;100829.22;5114355;28;19973;-63
2021/03/06 00:36:33;;;;;;;;;;;;;;;0.00;66.46;100834.13;5114888;28;20469;-63
2021/03/06 00:39:05;;;;;;;;;;;;;;;0.02;66.74;100838.38;5114907;28;19923;-63
2021/03/06 00:41:33;;;;;;;;;;;;;;;-0.08;66.76;100830.31;5114906;28;19927;-63
2021/03/06 00:44:00;;;;;;;;;;;;;;;-0.04;66.82;100834.72;5115254;28;19955;-63
2021/03/06 00:46:29;;;;;;;;;;;;;;;-0.10;66.88;100831.81;5114855;28;19958;-63
2021/03/06 00:48:58;;;;;;;;;;;;;;;-0.09;66.65;100836.09;5113897;28;20351;-63
2021/03/06 00:51:26;;;;;;;;;;;;;;;-0.11;66.88;100835.13;5113541;28;20022;-63
2021/03/06 00:54:13;;;;;;;;;;;;;;;-0.21;67.21;100832.84;5113609;28;20011;-63
2021/03/06 00:56:41;;;;;;;;;;;;;;;-0.19;67.28;100832.91;5114986;28;19992;-63
2021/03/06 00:59:08;;;;;;;;;;;;;;;-0.20;67.05;100837.09;5114683;28;19923;-63
2021/03/06 01:01:36;;;;;;;;;;;;;;;-0.21;67.29;100839.50;5113311;28;19973;-63
2021/03/06 01:04:05;;;;;;;;;;;;;;;-0.42;67.47;100839.06;5113692;28;20373;-64
2021/03/06 01:06:33;;;;;;;;;;;;;;;-0.34;67.98;100845.44;5114145;28;19924;-64
2021/03/06 01:09:01;;;;;;;;;;;;;;;-0.23;68.06;100841.91;5114601;28;19923;-64
2021/03/06 01:11:29;;;;;;;;;;;;;;;-0.52;68.33;100855.94;5114695;28;19924;-63
2021/03/06 01:13:57;;;;;;;;;;;;;;;-0.67;68.75;100848.34;5114488;28;19924;-64
2021/03/06 01:16:25;;;;;;;;;;;;;;;-0.74;69.05;100856.25;5113484;28;19973;-63
2021/03/06 01:18:53;;;;;;;;;;;;;;;-0.65;69.23;100854.34;5114455;28;19927;-63
2021/03/06 01:21:32;;;;;;;;;;;;;;;-0.65;69.40;100853.47;5114426;28;19977;-63
2021/03/06 01:23:59;;;;;;;;;;;;;;;-0.67;69.55;100853.34;5114402;28;20385;-63
2021/03/06 01:26:27;;;;;;;;;;;;;;;-0.68;69.67;100864.16;5114676;28;19924;-63
2021/03/06 01:28:56;;;;;;;;;;;;;;;-0.72;69.70;100862.25;5114925;28;19923;-63
2021/03/06 01:31:23;;;;;;;;;;;;;;;-0.65;70.04;100866.00;5114221;28;19923;-63
2021/03/06 01:33:52;;;;;;;;;;;;;;;-0.68;69.84;100870.06;5114110;28;19928;-63
2021/03/06 01:36:21;;;;;;;;;;;;;;;-0.63;69.97;100875.34;5114241;28;19946;-63
2021/03/06 01:38:49;;;;;;;;;;;;;;;-0.54;69.77;100873.41;5114198;28;19931;-63
2021/03/06 01:41:16;;;;;;;;;;;;;;;-0.40;69.82;100866.72;5114230;28;19923;-63
2021/03/06 01:43:44;;;;;;;;;;;;;;;-0.34;69.08;100873.00;5115067;28;19924;-64
2021/03/06 01:46:12;;;;;;;;;;;;;;;-0.31;69.32;100877.34;5118220;28;19924;-63
2021/03/06 01:48:40;;;;;;;;;;;;;;;-0.46;68.96;100872.25;5118206;28;19970;-63
2021/03/06 01:51:08;;;;;;;;;;;;;;;-0.36;69.28;100864.50;5118039;28;19930;-63
2021/03/06 01:53:36;;;;;;;;;;;;;;;-0.29;69.07;100866.59;5118127;28;19923;-63
2021/03/06 01:56:03;;;;;;;;;;;;;;;-0.28;68.93;100859.97;5118017;28;19927;-63
2021/03/06 01:58:32;;;;;;;;;;;;;;;-0.32;68.92;100861.44;5118017;28;19923;-63
2021/03/06 02:00:59;;;;;;;;;;;;;;;-0.37;68.94;100870.31;5117893;28;19985;-63
2021/03/06 02:03:28;;;;;;;;;;;;;;;-0.46;69.22;100877.28;5117947;28;19924;-63
2021/03/06 02:05:56;;;;;;;;;;;;;;;-0.54;69.30;100878.44;5117845;28;20343;-63
2021/03/06 02:08:24;;;;;;;;;;;;;;;-0.55;69.03;100876.69;5117670;28;20006;-63
2021/03/06 02:10:52;;;;;;;;;;;;;;;-0.64;69.62;100880.25;5117785;28;19930;-63
2021/03/06 02:13:28;;;;;;;;;;;;;;;-0.68;69.41;100884.22;5117686;27;19924;-63
2021/03/06 02:16:14;;;;;;;;;;;;;;;-0.70;69.76;100885.78;5117768;28;19924;-63
2021/03/06 02:18:46;;;;;;;;;;;;;;;-0.76;69.87;100881.22;5117543;28;19923;-63
2021/03/06 02:21:27;;;;;;;;;;;;;;;-0.80;70.13;100883.44;5116445;28;20424;-63
2021/03/06 02:24:06;;;;;;;;;;;;;;;-0.87;70.12;100887.22;5117557;28;19924;-63
2021/03/06 02:26:45;;;;;;;;;;;;;;;-0.95;70.52;100880.84;5117586;28;19927;-63
2021/03/06 02:29:23;;;;;;;;;;;;;;;-1.05;70.87;100882.63;5117481;28;20382;-63
2021/03/06 02:31:54;;;;;;;;;;;;;;;-1.27;71.13;100885.41;5117485;28;19923;-63
2021/03/06 02:34:24;;;;;;;;;;;;;;;-1.27;71.79;100887.06;5117282;28;20404;-63
2021/03/06 02:36:55;;;;;;;;;;;;;;;-1.47;71.65;100884.13;5117642;28;19928;-64
2021/03/06 02:39:25;;;;;;;;;;;;;;;-1.61;71.97;100887.31;5117253;28;19927;-63
2021/03/06 02:41:53;;;;;;;;;;;;;;;-1.58;72.21;100885.03;5117195;28;19969;-63
2021/03/06 02:44:21;;;;;;;;;;;;;;;-1.63;72.13;100895.50;5117166;28;19969;-63
2021/03/06 02:46:49;;;;;;;;;;;;;;;-1.78;72.71;100890.34;5117124;28;20290;-63
2021/03/06 02:49:18;;;;;;;;;;;;;;;-1.86;73.53;100896.47;5117046;28;19924;-63
2021/03/06 02:51:47;;;;;;;;;;;;;;;-1.88;73.47;100900.50;5117564;28;20246;-63
2021/03/06 02:54:15;;;;;;;;;;;;;;;-1.90;73.90;100892.03;5117198;28;19969;-63
2021/03/06 02:56:43;;;;;;;;;;;;;;;-1.91;73.75;100902.78;5116231;28;19934;-63
2021/03/06 02:59:17;;;;;;;;;;;;;;;-1.88;73.84;100897.13;5117175;28;19924;-63
2021/03/06 03:01:49;;;;;;;;;;;;;;;-1.89;73.96;100906.25;5117114;28;19951;-63
2021/03/06 03:04:24;;;;;;;;;;;;;;;-2.05;73.75;100919.38;5117142;28;19923;-63
2021/03/06 03:06:56;;;;;;;;;;;;;;;-2.04;74.25;100905.22;5116634;28;19934;-63
2021/03/06 03:09:26;;;;;;;;;;;;;;;-1.89;74.36;100911.25;5116881;28;20293;-63
2021/03/06 03:11:57;;;;;;;;;;;;;;;-1.97;73.72;100909.88;5116871;27;19935;-63
2021/03/06 03:14:33;;;;;;;;;;;;;;;-1.81;74.32;100915.16;5116630;28;19955;-63
2021/03/06 03:17:03;;;;;;;;;;;;;;;-1.70;73.77;100909.22;5116885;28;19923;-63
2021/03/06 03:19:34;;;;;;;;;;;;;;;-1.84;73.65;100919.94;5116793;28;20369;-63
2021/03/06 03:22:03;;;;;;;;;;;;;;;-1.80;73.58;100919.38;5116863;27;19931;-63
2021/03/06 03:24:34;;;;;;;;;;;;;;;-1.87;73.84;100924.72;5116537;28;19924;-63
2021/03/06 03:27:04;;;;;;;;;;;;;;;-1.89;73.72;100915.38;5116427;28;20292;-63
2021/03/06 03:29:32;;;;;;;;;;;;;;;-1.82;73.98;100925.91;5116199;28;19923;-63
2021/03/06 03:32:00;;;;;;;;;;;;;;;-1.82;73.31;100928.41;5116192;28;19924;-63
2021/03/06 03:34:29;;;;;;;;;;;;;;;-1.91;73.48;100920.28;5116443;27;19930;-63
2021/03/06 03:36:57;;;;;;;;;;;;;;;-1.84;73.86;100924.94;5116136;28;19924;-64
2021/03/06 03:39:25;;;;;;;;;;;;;;;-1.86;73.59;100936.50;5116065;28;19931;-63
2021/03/06 03:41:53;;;;;;;;;;;;;;;-1.85;73.88;100935.75;5116044;28;19934;-63
2021/03/06 03:44:21;;;;;;;;;;;;;;;-1.90;73.74;100934.56;5115954;28;20324;-63
2021/03/06 03:46:48;;;;;;;;;;;;;;;-1.87;73.84;100934.72;5115851;27;19923;-63
2021/03/06 03:49:18;;;;;;;;;;;;;;;-1.74;73.77;100941.44;5115911;28;19946;-63
2021/03/06 03:51:46;;;;;;;;;;;;;;;-1.67;73.33;100949.47;5115753;28;20027;-63
2021/03/06 03:54:16;;;;;;;;;;;;;;;-1.79;73.05;100948.66;5115812;28;19924;-63
2021/03/06 03:56:44;;;;;;;;;;;;;;;-1.76;73.06;100951.38;5115685;28;20385;-63
2021/03/06 03:59:13;;;;;;;;;;;;;;;-1.87;73.08;100953.91;5116029;28;20327;-63
2021/03/06 04:01:41;;;;;;;;;;;;;;;-1.97;73.15;100961.53;5115569;28;19924;-63
2021/03/06 04:04:10;;;;;;;;;;;;;;;-2.05;72.81;100968.50;5115604;28;19924;-63
2021/03/06 04:06:38;;;;;;;;;;;;;;;-2.09;73.12;100976.56;5114892;28;20006;-63
2021/03/06 04:09:05;;;;;;;;;;;;;;;-2.30;73.53;100982.53;5114967;28;19924;-63
2021/03/06 04:11:34;;;;;;;;;;;;;;;-2.26;73.63;100977.88;5115326;28;19928;-63
2021/03/06 04:14:02;;;;;;;;;;;;;;;-2.55;73.27;100974.06;5115391;28;19963;-63
2021/03/06 04:16:30;;;;;;;;;;;;;;;-2.52;73.60;100986.78;5115309;28;19989;-63
2021/03/06 04:18:58;;;;;;;;;;;;;;;-2.65;74.18;100989.16;5115335;28;19963;-63
2021/03/06 04:21:25;;;;;;;;;;;;;;;-2.93;74.28;100988.78;5115222;28;19924;-63
2021/03/06 04:23:53;;;;;;;;;;;;;;;-2.86;75.07;100988.47;5115253;28;19971;-63
2021/03/06 04:26:21;;;;;;;;;;;;;;;-2.60;74.69;100990.34;5115230;28;19968;-63
2021/03/06 04:28:49;;;;;;;;;;;;;;;-2.64;74.66;100990.91;5115151;28;20359;-63
2021/03/06 04:31:17;;;;;;;;;;;;;;;-2.62;74.93;100984.38;5115065;28;19924;-63
2021/03/06 04:33:44;;;;;;;;;;;;;;;-2.61;75.08;100991.09;5115049;28;19924;-64
2021/03/06 04:36:12;;;;;;;;;;;;;;;-2.60;75.10;100983.72;5115339;28;19924;-63
2021/03/06 04:38:40;;;;;;;;;;;;;;;-2.28;75.59;100984.38;5114941;28;19928;-63
2021/03/06 04:41:07;;;;;;;;;;;;;;;-2.24;75.08;100990.47;5114949;28;19931;-63
2021/03/06 04:43:35;;;;;;;;;;;;;;;-2.45;74.94;100991.47;5114849;28;19930;-63
2021/03/06 04:46:04;;;;;;;;;;;;;;;-2.41;75.70;100985.91;5114894;28;20103;-63
2021/03/06 04:48:31;;;;;;;;;;;;;;;-2.38;75.18;100991.13;5114945;28;20381;-63
2021/03/06 04:51:00;;;;;;;;;;;;;;;-2.47;75.06;101005.47;5114731;27;19928;-63
2021/03/06 04:53:27;;;;;;;;;;;;;;;-2.46;75.33;100997.22;5114955;28;19924;-63
2021/03/06 04:55:54;;;;;;;;;;;;;;;-2.41;75.53;100995.91;5114949;28;19923;-64
2021/03/06 04:58:22;;;;;;;;;;;;;;;-2.65;75.48;101000.03;5114731;28;19927;-63
2021/03/06 05:00:50;;;;;;;;;;;;;;;-2.66;75.52;100997.44;5114965;28;19924;-63
2021/03/06 05:03:20;;;;;;;;;;;;;;;-2.52;76.02;101001.78;5114640;28;19923;-63
2021/03/06 05:05:47;;;;;;;;;;;;;;;-2.44;75.65;101003.19;5114649;28;19976;-64
2021/03/06 05:08:15;;;;;;;;;;;;;;;-2.49;75.37;101001.97;5114626;28;19924;-63
2021/03/06 05:10:43;;;;;;;;;;;;;;;-2.48;75.68;101003.72;5114372;28;19931;-63
2021/03/06 05:13:10;;;;;;;;;;;;;;;-2.55;75.28;101014.91;5114828;28;20023;-64
2021/03/06 05:15:38;;;;;;;;;;;;;;;-2.53;75.44;101010.91;5114328;28;20304;-63
2021/03/06 05:18:05;;;;;;;;;;;;;;;-2.65;75.36;101011.63;5114319;28;19924;-63
2021/03/06 05:20:34;;;;;;;;;;;;;;;-2.86;75.73;101018.44;5114313;28;19928;-63
2021/03/06 05:23:02;;;;;;;;;;;;;;;-3.00;76.04;101022.41;5114367;28;19930;-63
2021/03/06 05:25:30;;;;;;;;;;;;;;;-2.84;76.31;101012.81;5114728;28;19924;-63
2021/03/06 05:27:57;;;;;;;;;;;;;;;-2.75;76.34;101022.59;5114206;28;19923;-63
2021/03/06 05:30:25;;;;;;;;;;;;;;;-2.65;76.09;101029.13;5114291;28;20030;-64
2021/03/06 05:32:53;;;;;;;;;;;;;;;-2.80;76.01;101022.25;5114252;28;20369;-63
2021/03/06 05:35:25;;;;;;;;;;;;;;;-2.96;76.24;101034.38;5114477;28;19954;-64
2021/03/06 05:37:53;;;;;;;;;;;;;;;-2.98;76.22;101038.41;5114236;28;19974;-63
2021/03/06 05:40:22;;;;;;;;;;;;;;;-3.01;76.30;101037.28;5114219;28;19924;-64
2021/03/06 05:42:50;;;;;;;;;;;;;;;-2.84;76.28;101045.28;5114814;28;19970;-64
2021/03/06 05:45:18;;;;;;;;;;;;;;;-2.81;76.62;101047.13;5114201;28;20415;-63
2021/03/06 05:47:46;;;;;;;;;;;;;;;-3.00;76.43;101049.03;5114090;28;19930;-63
2021/03/06 05:50:14;;;;;;;;;;;;;;;-2.98;76.53;101055.00;5114462;28;19931;-63
2021/03/06 05:52:43;;;;;;;;;;;;;;;-2.90;76.56;101054.78;5114031;28;19928;-64
2021/03/06 05:55:16;;;;;;;;;;;;;;;-2.66;76.62;101054.88;5114114;28;19924;-63
2021/03/06 05:57:55;;;;;;;;;;;;;;;-2.58;76.33;101066.28;5112911;28;19928;-64
2021/03/06 06:00:23;;;;;;;;;;;;;;;-2.36;76.33;101062.09;5114041;28;19931;-63
2021/03/06 06:02:56;;;;;;;;;;;;;;;-2.24;75.98;101076.34;5114029;28;20274;-64
2021/03/06 06:05:24;;;;;;;;;;;;;;;-2.21;75.75;101075.72;5114500;28;19959;-63
2021/03/06 06:07:54;;;;;;;;;;;;;;;-2.34;76.28;101078.06;5114082;28;19970;-64
2021/03/06 06:10:24;;;;;;;;;;;;;;;-2.14;75.61;101087.88;5113926;28;20336;-64
2021/03/06 06:12:51;;;;;;;;;;;;;;;-2.03;75.74;101092.00;5113874;28;19923;-64
2021/03/06 06:15:22;;;;;;;;;;;;;;;-1.74;75.79;101094.94;5114184;28;19947;-63
2021/03/06 06:17:50;;;;;;;;;;;;;;;-1.47;75.30;101088.50;5113887;28;19924;-63
2021/03/06 06:20:18;;;;;;;;;;;;;;;-1.01;75.04;101097.53;5114213;28;19959;-63
2021/03/06 06:22:46;;;;;;;;;;;;;;;-0.64;74.39;101104.22;5113806;28;19959;-63
2021/03/06 06:25:28;;;;;;;;;;;;;;;-0.46;73.95;101097.03;5114164;28;19923;-63
2021/03/06 06:28:07;;;;;;;;;;;;;;;-0.29;72.83;101102.38;5113908;28;19924;-63
2021/03/06 06:30:35;;;;;;;;;;;;;;;-0.19;72.59;101104.69;5114325;28;19928;-63
2021/03/06 06:33:03;;;;;;;;;;;;;;;-0.26;71.98;101112.59;5117509;28;19924;-63
2021/03/06 06:35:39;;;;;;;;;;;;;;;-0.34;71.66;101113.75;5117688;28;19947;-63
2021/03/06 06:38:07;;;;;;;;;;;;;;;-0.08;71.84;101107.91;5117288;28;19953;-63
2021/03/06 06:40:35;;;;;;;;;;;;;;;0.20;71.40;101113.03;5117252;28;19931;-63
2021/03/06 06:43:20;;;;;;;;;;;;;;;0.49;70.43;101110.72;5117152;28;20026;-63
2021/03/06 06:45:48;;;;;;;;;;;;;;;0.47;70.60;101118.16;5117222;28;20388;-63
2021/03/06 06:48:17;;;;;;;;;;;;;;;0.38;69.83;101122.63;5117361;28;19972;-63
2021/03/06 06:50:45;;;;;;;;;;;;;;;0.40;70.29;101127.72;5117029;28;19930;-63
2021/03/06 06:53:23;;;;;;;;;;;;;;;0.69;70.06;101127.88;5116868;28;20080;-63
2021/03/06 06:55:51;;;;;;;;;;;;;;;1.22;69.74;101134.47;5117034;28;20015;-63
2021/03/06 06:58:39;;;;;;;;;;;;;;;1.37;68.49;101131.16;5116994;28;19924;-63
2021/03/06 07:01:22;;;;;;;;;;;;;;;1.45;68.03;101129.94;5116772;28;19947;-63
2021/03/06 07:03:59;;;;;;;;;;;;;;;1.31;67.74;101132.53;5116665;28;19959;-63
2021/03/06 07:06:26;;;;;;;;;;;;;;;1.82;67.92;101133.81;5116414;28;19923;-63
2021/03/06 07:09:04;;;;;;;;;;;;;;;1.93;67.63;101136.16;5116773;28;20447;-63
2021/03/06 07:11:32;;;;;;;;;;;;;;;2.05;66.99;101133.47;5116955;28;19928;-63
2021/03/06 07:14:00;;;;;;;;;;;;;;;2.02;67.31;101128.25;5116861;28;19923;-63
2021/03/06 07:16:53;;;;;;;;;;;;;;;1.98;66.92;101137.31;5116828;28;19924;-63
2021/03/06 07:19:21;;;;;;;;;;;;;;;2.20;67.20;101133.47;5116503;28;19966;-63
2021/03/06 07:21:49;;;;;;;;;;;;;;;2.42;66.75;101132.22;5116739;28;20305;-63
2021/03/06 07:24:18;;;;;;;;;;;;;;;2.40;66.45;101130.41;5116321;28;19931;-63
2021/03/06 07:26:51;;;;;;;;;;;;;;;2.51;65.88;101136.88;5116347;28;20357;-63
2021/03/06 07:29:21;;;;;;;;;;;;;;;2.58;65.33;101137.31;5116223;28;19924;-63
2021/03/06 07:31:50;;;;;;;;;;;;;;;2.67;64.42;101145.34;5116180;28;19930;-63
2021/03/06 07:34:20;;;;;;;;;;;;;;;2.80;63.99;101130.91;5116159;28;19937;-63
2021/03/06 07:36:49;;;;;;;;;;;;;;;2.95;63.70;101132.56;5116165;28;19923;-63
2021/03/06 07:39:17;;;;;;;;;;;;;;;3.20;64.40;101139.75;5116319;28;19977;-63
2021/03/06 07:41:49;;;;;;;;;;;;;;;3.25;63.26;101135.81;5115942;28;19930;-63
2021/03/06 07:44:19;;;;;;;;;;;;;;;3.02;61.67;101143.84;5116255;28;19959;-63
2021/03/06 07:46:49;;;;;;;;;;;;;;;3.26;61.50;101145.13;5105199;28;19956;-63
2021/03/06 07:49:22;;;;;;;;;;;;;;;3.37;61.16;101144.91;5095692;28;19924;-63
2021/03/06 07:51:50;;;;;;;;;;;;;;;3.59;60.55;101146.84;5095352;28;19924;-64
2021/03/06 07:54:18;;;;;;;;;;;;;;;3.09;60.34;101145.91;5095641;28;19974;-63
2021/03/06 07:56:46;;;;;;;;;;;;;;;3.05;60.25;101149.03;5095227;28;19975;-64
2021/03/06 07:59:39;;;;;;;;;;;;;;;3.26;61.46;101155.22;5095244;28;19947;-63
2021/03/06 08:02:22;;;;;;;;;;;;;;;3.58;60.79;101155.19;5094872;28;20030;-63
2021/03/06 08:04:52;;;;;;;;;;;;;;;4.04;60.34;101156.72;5095092;28;19930;-64
2021/03/06 08:07:22;;;;;;;;;;;;;;;3.97;59.65;101161.38;5093636;28;19946;-64
2021/03/06 08:10:00;;;;;;;;;;;;;;;3.83;59.50;101157.31;5095184;28;19924;-63
2021/03/06 08:12:31;;;;;;;;;;;;;;;4.06;59.20;101157.66;5095008;28;19947;-63
2021/03/06 08:14:59;;;;;;;;;;;;;;;4.29;58.49;101160.41;5095149;28;19924;-63
2021/03/06 08:17:37;;;;;;;;;;;;;;;4.49;58.10;101160.56;5094957;28;19924;-63
2021/03/06 08:20:22;;;;;;;;;;;;;;;4.68;57.66;101164.81;5095343;28;20015;-64
2021/03/06 08:23:04;;;;;;;;;;;;;;;4.94;56.69;101156.78;5094859;28;19924;-63
2021/03/06 08:25:32;;;;;;;;;;;;;;;4.78;57.01;101163.56;5094931;28;19928;-64
2021/03/06 08:28:10;;;;;;;;;;;;;;;4.75;57.02;101162.63;5094991;28;19924;-64
2021/03/06 08:30:38;;;;;;;;;;;;;;;5.24;54.71;101168.25;5094809;28;19924;-64
2021/03/06 08:33:16;;;;;;;;;;;;;;;5.25;50.60;101170.00;5094419;28;20019;-64
2021/03/06 08:35:45;;;;;;;;;;;;;;;5.45;51.45;101168.31;5094542;28;20344;-64
2021/03/06 08:38:24;;;;;;;;;;;;;;;5.63;50.29;101168.25;5094474;28;19924;-64
2021/03/06 08:40:52;;;;;;;;;;;;;;;5.68;49.72;101171.84;5094776;28;19924;-64
2021/03/06 08:43:21;;;;;;;;;;;;;;;5.55;48.79;101160.34;5094541;28;19931;-64
2021/03/06 08:45:48;;;;;;;;;;;;;;;5.51;48.31;101173.66;5094310;28;19923;-64
2021/03/06 08:48:22;;;;;;;;;;;;;;;5.50;47.62;101171.91;5094420;28;20328;-64
2021/03/06 08:50:51;;;;;;;;;;;;;;;5.43;47.12;101165.75;5094356;28;19924;-64
2021/03/06 08:53:20;;;;;;;;;;;;;;;5.31;47.28;101171.91;5094032;28;19924;-63
2021/03/06 08:55:49;;;;;;;;;;;;;;;5.22;48.39;101174.06;5094689;28;20396;-63
2021/03/06 08:58:18;;;;;;;;;;;;;;;5.30;50.11;101157.56;5094380;28;20385;-64
2021/03/06 09:00:47;;;;;;;;;;;;;;;5.31;49.39;101165.19;5094185;28;19924;-64
2021/03/06 09:03:17;;;;;;;;;;;;;;;5.54;48.40;101167.88;5094108;28;19977;-64
2021/03/06 09:05:46;;;;;;;;;;;;;;;5.71;46.81;101167.78;5094174;28;19947;-65
2021/03/06 09:08:18;;;;;;;;;;;;;;;6.02;46.97;101162.38;5094131;28;19932;-64
2021/03/06 09:10:46;;;;;;;;;;;;;;;6.26;45.79;101168.44;5094199;28;20335;-64
2021/03/06 09:13:16;;;;;;;;;;;;;;;6.10;45.24;101168.59;5094183;28;19928;-63
2021/03/06 09:15:44;;;;;;;;;;;;;;;6.33;45.48;101172.09;5094072;28;19924;-63
2021/03/06 09:18:13;;;;;;;;;;;;;;;6.14;44.00;101165.41;5094177;28;20338;-63
2021/03/06 09:20:43;;;;;;;;;;;;;;;6.41;44.64;101166.50;5094245;28;19931;-64
2021/03/06 09:23:11;;;;;;;;;;;;;;;7.02;44.95;101163.78;5094645;28;20380;-64
2021/03/06 09:25:40;;;;;;;;;;;;;;;6.49;44.62;101160.06;5093911;28;20377;-64
2021/03/06 09:28:11;;;;;;;;;;;;;;;6.30;45.57;101162.69;5094525;28;19954;-64
2021/03/06 09:30:40;;;;;;;;;;;;;;;6.28;45.60;101164.31;5094190;28;19924;-63
2021/03/06 09:33:21;;;;;;;;;;;;;;;6.20;43.18;101164.78;5093841;28;19969;-62
2021/03/06 09:36:00;;;;;;;;;;;;;;;6.54;44.04;101168.72;5094053;28;20019;-62
2021/03/06 09:38:41;;;;;;;;;;;;;;;6.48;43.28;101168.47;5093877;28;19928;-62
2021/03/06 09:41:10;;;;;;;;;;;;;;;6.88;43.20;101172.56;5093630;28;19960;-62
2021/03/06 09:43:39;;;;;;;;;;;;;;;7.23;42.26;101170.53;5094132;28;19927;-63
2021/03/06 09:46:14;;;;;;;;;;;;;;;7.38;41.49;101170.22;5093789;28;20382;-64
2021/03/06 09:48:48;;;;;;;;;;;;;;;7.49;40.62;101168.91;5093780;28;19924;-65
2021/03/06 09:51:17;;;;;;;;;;;;;;;7.61;41.49;101168.47;5093747;28;19924;-65
2021/03/06 09:53:54;;;;;;;;;;;;;;;7.82;40.15;101164.97;5093836;28;19936;-65
2021/03/06 09:56:22;;;;;;;;;;;;;;;7.85;39.89;101170.19;5093698;28;19970;-65
2021/03/06 09:58:57;;;;;;;;;;;;;;;7.53;39.58;101173.31;5093632;28;19985;-65
2021/03/06 10:01:26;;;;;;;;;;;;;;;8.13;40.80;101177.06;5093618;28;20028;-64
2021/03/06 10:03:54;;;;;;;;;;;;;;;8.29;38.49;101176.78;5092508;28;20334;-66
2021/03/06 10:06:24;;;;;;;;;;;;;;;8.06;38.65;101178.53;5095097;28;19931;-63
2021/03/06 10:08:53;;;;;;;;;;;;;;;8.52;38.89;101172.41;5097436;28;19948;-64
2021/03/06 10:11:26;;;;;;;;;;;;;;;8.20;38.30;101183.22;5097398;28;19924;-64
2021/03/06 10:13:55;;;;;;;;;;;;;;;8.06;38.01;101178.53;5097553;28;19924;-64
2021/03/06 10:16:23;;;;;;;;;;;;;;;7.77;38.05;101176.69;5097303;28;19924;-64
2021/03/06 10:18:51;;;;;;;;;;;;;;;8.00;38.52;101180.88;5096939;28;19924;-63
2021/03/06 10:21:20;;;;;;;;;;;;;;;8.33;38.54;101182.81;5097461;28;19978;-64
2021/03/06 10:23:48;;;;;;;;;;;;;;;8.39;38.12;101180.47;5096024;28;19924;-64
2021/03/06 10:26:20;;;;;;;;;;;;;;;7.96;35.94;101173.09;5097113;28;19928;-64
2021/03/06 10:28:49;;;;;;;;;;;;;;;7.81;36.01;101170.91;5097390;28;19924;-64
2021/03/06 10:31:27;;;;;;;;;;;;;;;7.47;36.33;101168.00;5096988;28;19967;-64
2021/03/06 10:33:57;;;;;;;;;;;;;;;7.67;36.69;101163.63;5097124;28;19931;-64
2021/03/06 10:36:25;;;;;;;;;;;;;;;8.48;37.38;101165.50;5096588;28;19928;-64
2021/03/06 10:39:07;;;;;;;;;;;;;;;8.44;37.02;101163.69;5097175;28;20034;-64
2021/03/06 10:41:35;;;;;;;;;;;;;;;9.05;37.73;101156.22;5096631;28;20378;-64
2021/03/06 10:44:02;;;;;;;;;;;;;;;9.34;38.75;101161.31;5097641;28;20269;-63
2021/03/06 10:46:32;;;;;;;;;;;;;;;9.01;36.56;101152.72;5096996;28;20010;-64
2021/03/06 10:49:01;;;;;;;;;;;;;;;9.30;36.08;101146.78;5096772;28;19924;-64
2021/03/06 10:51:40;;;;;;;;;;;;;;;8.91;34.42;101147.31;5096602;28;19956;-64
2021/03/06 10:54:08;;;;;;;;;;;;;;;8.17;35.12;101155.13;5096621;28;20370;-64
2021/03/06 10:56:36;;;;;;;;;;;;;;;7.82;35.58;101149.75;5096475;28;20336;-64
2021/03/06 10:59:04;;;;;;;;;;;;;;;8.14;35.28;101143.19;5096525;28;19934;-63
2021/03/06 11:01:33;;;;;;;;;;;;;;;8.51;33.96;101137.63;5096350;28;19971;-64
2021/03/06 11:04:03;;;;;;;;;;;;;;;8.26;34.19;101147.78;5095110;28;19924;-64
2021/03/06 11:06:31;;;;;;;;;;;;;;;8.64;34.88;101137.16;5096080;28;19924;-64
2021/03/06 11:08:59;;;;;;;;;;;;;;;8.72;33.48;101143.34;5096345;28;19985;-64
2021/03/06 11:11:44;;;;;;;;;;;;;;;8.48;33.88;101129.88;5096194;28;19928;-64
2021/03/06 11:14:21;;;;;;;;;;;;;;;8.71;33.44;101119.56;5096177;28;19985;-64
2021/03/06 11:16:49;;;;;;;;;;;;;;;8.95;34.15;101109.25;5095806;28;19931;-64
2021/03/06 11:19:18;;;;;;;;;;;;;;;8.22;34.95;101108.69;5096058;28;19970;-64
2021/03/06 11:21:46;;;;;;;;;;;;;;;8.46;34.32;101121.34;5095997;28;19928;-64
2021/03/06 11:24:14;;;;;;;;;;;;;;;8.00;35.76;101124.94;5096215;28;19951;-64
2021/03/06 11:26:42;;;;;;;;;;;;;;;7.54;37.36;101116.59;5096010;28;19969;-63
2021/03/06 11:29:09;;;;;;;;;;;;;;;7.59;37.29;101115.06;5095837;28;19924;-63
2021/03/06 11:31:55;;;;;;;;;;;;;;;7.12;37.62;101115.97;5096123;28;20372;-64
2021/03/06 11:34:24;;;;;;;;;;;;;;;8.22;36.57;101115.44;5095787;28;20014;-63
2021/03/06 11:36:51;;;;;;;;;;;;;;;8.94;35.41;101097.34;5095784;28;19924;-64
2021/03/06 11:39:19;;;;;;;;;;;;;;;7.97;35.16;101109.59;5095590;28;20408;-64
2021/03/06 11:41:47;;;;;;;;;;;;;;;7.66;36.72;101096.69;5095628;28;19924;-64
2021/03/06 11:44:14;;;;;;;;;;;;;;;7.44;37.56;101104.38;5095871;28;19935;-64
2021/03/06 11:46:42;;;;;;;;;;;;;;;7.15;36.03;101100.81;5095644;28;19924;-64
2021/03/06 11:49:10;;;;;;;;;;;;;;;7.24;36.69;101100.28;5095532;28;20361;-64
2021/03/06 11:51:39;;;;;;;;;;;;;;;8.45;35.48;101094.16;5095447;28;19970;-64
2021/03/06 11:54:07;;;;;;;;;;;;;;;9.41;33.24;101085.91;5095615;28;20427;-64
2021/03/06 11:56:35;;;;;;;;;;;;;;;10.33;33.11;101080.59;5095701;28;19959;-64
2021/03/06 11:59:03;;;;;;;;;;;;;;;10.28;31.49;101082.16;5095393;28;20385;-64
2021/03/06 12:01:31;;;;;;;;;;;;;;;10.28;30.81;101073.66;5095106;28;20332;-64
2021/03/06 12:03:59;;;;;;;;;;;;;;;10.30;30.90;101082.19;5095228;28;19932;-64
2021/03/06 12:06:27;;;;;;;;;;;;;;;10.00;30.16;101079.78;5094876;28;19924;-64
2021/03/06 12:08:56;;;;;;;;;;;;;;;9.63;30.99;101072.91;5095506;28;19928;-64
2021/03/06 12:11:23;;;;;;;;;;;;;;;9.35;30.97;101073.00;5093884;28;19924;-64
2021/03/06 12:13:51;;;;;;;;;;;;;;;8.73;31.94;101073.81;5095051;28;19928;-64
2021/03/06 12:16:19;;;;;;;;;;;;;;;8.20;32.26;101071.31;5095225;28;19930;-64
2021/03/06 12:18:47;;;;;;;;;;;;;;;7.87;33.36;101073.66;5095262;28;19924;-64
2021/03/06 12:21:16;;;;;;;;;;;;;;;7.69;33.26;101073.91;5094902;28;19928;-64
2021/03/06 12:23:43;;;;;;;;;;;;;;;7.58;34.17;101067.63;5094841;28;19931;-64
2021/03/06 12:26:12;;;;;;;;;;;;;;;7.58;35.05;101057.47;5094882;28;19964;-64
2021/03/06 12:28:40;;;;;;;;;;;;;;;7.60;35.09;101060.03;5092793;28;19923;-64
2021/03/06 12:31:08;;;;;;;;;;;;;;;7.67;34.31;101054.34;5094803;28;19924;-64
2021/03/06 12:33:36;;;;;;;;;;;;;;;7.65;33.88;101054.31;5094772;28;19931;-64
2021/03/06 12:36:05;;;;;;;;;;;;;;;8.61;33.24;101048.03;5094725;28;19928;-64
2021/03/06 12:38:33;;;;;;;;;;;;;;;8.49;30.91;101055.28;5094636;28;19924;-64
2021/03/06 12:41:01;;;;;;;;;;;;;;;7.83;32.88;101049.81;5094633;28;19931;-64
2021/03/06 12:43:30;;;;;;;;;;;;;;;7.35;32.87;101048.19;5094489;28;19924;-64
2021/03/06 12:45:58;;;;;;;;;;;;;;;6.97;33.43;101043.47;5094569;28;19924;-64
2021/03/06 12:48:26;;;;;;;;;;;;;;;7.28;33.84;101041.19;5094652;28;19931;-64
2021/03/06 12:50:54;;;;;;;;;;;;;;;7.14;33.69;101038.16;5094488;28;19928;-64
2021/03/06 12:53:22;;;;;;;;;;;;;;;7.29;34.06;101032.75;5094363;28;19924;-64
2021/03/06 12:55:50;;;;;;;;;;;;;;;8.09;35.31;101041.31;5094251;28;19924;-64
2021/03/06 12:58:17;;;;;;;;;;;;;;;9.17;34.46;101029.19;5094325;28;19924;-64